sensor_id;sensor_type;location;lat;lon;timestamp;P1;durP1;ratioP1;P2;durP2;ratioP2
18568;SDS011;14780;48.316;-1.050;2023-06-10T00:00:54;6.25;;;4.13;;
18568;SDS011;14780;48.316;-1.050;2023-06-10T00:03:39;5.88;;;4.80;;
18568;SDS011;14780;48.316;-1.050;2023-06-10T00:06:25;5.68;;;4.40;;
18568;SDS011;14780;48.316;-1.050;2023-06-10T00:09:10;5.88;;;4.78;;
18568;SDS011;14780;48.316;-1.050;2023-06-10T00:11:55;7.82;;;4.95;;
18568;SDS011;14780;48.316;-1.050;2023-06-10T00:14:43;6.78;;;4.63;;
18568;SDS011;14780;48.316;-1.050;2023-06-10T00:17:28;6.47;;;4.82;;
18568;SDS011;14780;48.316;-1.050;2023-06-10T00:20:13;6.70;;;4.40;;
18568;SDS011;14780;48.316;-1.050;2023-06-10T00:22:58;5.75;;;4.47;;
18568;SDS011;14780;48.316;-1.050;2023-06-10T00:25:44;6.38;;;4.50;;
18568;SDS011;14780;48.316;-1.050;2023-06-10T00:28:29;5.57;;;4.00;;
18568;SDS011;14780;48.316;-1.050;2023-06-10T00:31:14;5.75;;;4.38;;
18568;SDS011;14780;48.316;-1.050;2023-06-10T00:33:59;6.20;;;4.40;;
18568;SDS011;14780;48.316;-1.050;2023-06-10T00:36:44;6.50;;;4.40;;
18568;SDS011;14780;48.316;-1.050;2023-06-10T00:39:28;8.38;;;4.53;;
18568;SDS011;14780;48.316;-1.050;2023-06-10T00:42:13;8.40;;;4.47;;
18568;SDS011;14780;48.316;-1.050;2023-06-10T00:44:57;6.22;;;4.57;;
18568;SDS011;14780;48.316;-1.050;2023-06-10T00:47:42;5.90;;;4.07;;
18568;SDS011;14780;48.316;-1.050;2023-06-10T00:50:27;5.50;;;4.50;;
18568;SDS011;14780;48.316;-1.050;2023-06-10T00:53:12;6.55;;;3.72;;
18568;SDS011;14780;48.316;-1.050;2023-06-10T00:55:57;5.40;;;4.18;;
18568;SDS011;14780;48.316;-1.050;2023-06-10T00:58:42;7.70;;;4.25;;
18568;SDS011;14780;48.316;-1.050;2023-06-10T01:01:28;5.15;;;4.07;;
18568;SDS011;14780;48.316;-1.050;2023-06-10T01:04:13;10.75;;;4.32;;
18568;SDS011;14780;48.316;-1.050;2023-06-10T01:07:07;6.10;;;4.10;;
18568;SDS011;14780;48.316;-1.050;2023-06-10T01:13:06;5.10;;;3.75;;
18568;SDS011;14780;48.316;-1.050;2023-06-10T01:15:55;6.00;;;3.95;;
18568;SDS011;14780;48.316;-1.050;2023-06-10T01:18:40;6.35;;;3.80;;
18568;SDS011;14780;48.316;-1.050;2023-06-10T01:21:25;5.95;;;3.95;;
18568;SDS011;14780;48.316;-1.050;2023-06-10T01:24:10;4.63;;;3.80;;
18568;SDS011;14780;48.316;-1.050;2023-06-10T01:26:55;5.65;;;4.00;;
18568;SDS011;14780;48.316;-1.050;2023-06-10T01:29:45;5.97;;;4.35;;
18568;SDS011;14780;48.316;-1.050;2023-06-10T01:32:37;6.25;;;3.92;;
18568;SDS011;14780;48.316;-1.050;2023-06-10T01:35:28;5.63;;;4.22;;
18568;SDS011;14780;48.316;-1.050;2023-06-10T01:38:15;6.13;;;4.20;;
18568;SDS011;14780;48.316;-1.050;2023-06-10T01:41:02;5.68;;;3.72;;
18568;SDS011;14780;48.316;-1.050;2023-06-10T01:43:48;5.65;;;4.05;;
18568;SDS011;14780;48.316;-1.050;2023-06-10T01:46:33;5.68;;;4.25;;
18568;SDS011;14780;48.316;-1.050;2023-06-10T01:49:18;6.07;;;4.10;;
18568;SDS011;14780;48.316;-1.050;2023-06-10T01:52:03;5.78;;;3.95;;
18568;SDS011;14780;48.316;-1.050;2023-06-10T01:54:49;5.25;;;4.05;;
18568;SDS011;14780;48.316;-1.050;2023-06-10T01:57:33;4.93;;;3.55;;
18568;SDS011;14780;48.316;-1.050;2023-06-10T02:00:18;5.75;;;4.28;;
18568;SDS011;14780;48.316;-1.050;2023-06-10T02:03:02;5.55;;;3.95;;
18568;SDS011;14780;48.316;-1.050;2023-06-10T02:05:47;5.72;;;3.88;;
18568;SDS011;14780;48.316;-1.050;2023-06-10T02:08:32;4.47;;;3.42;;
18568;SDS011;14780;48.316;-1.050;2023-06-10T02:11:17;5.85;;;3.83;;
18568;SDS011;14780;48.316;-1.050;2023-06-10T02:14:02;4.60;;;3.50;;
18568;SDS011;14780;48.316;-1.050;2023-06-10T02:16:46;4.83;;;3.70;;
18568;SDS011;14780;48.316;-1.050;2023-06-10T02:19:31;4.63;;;3.60;;
18568;SDS011;14780;48.316;-1.050;2023-06-10T02:22:16;4.70;;;3.85;;
18568;SDS011;14780;48.316;-1.050;2023-06-10T02:25:00;4.72;;;3.50;;
18568;SDS011;14780;48.316;-1.050;2023-06-10T02:27:45;4.85;;;3.90;;
18568;SDS011;14780;48.316;-1.050;2023-06-10T02:30:30;4.45;;;3.58;;
18568;SDS011;14780;48.316;-1.050;2023-06-10T02:33:15;4.68;;;3.80;;
18568;SDS011;14780;48.316;-1.050;2023-06-10T02:36:01;4.82;;;3.60;;
18568;SDS011;14780;48.316;-1.050;2023-06-10T02:38:46;4.68;;;3.55;;
18568;SDS011;14780;48.316;-1.050;2023-06-10T02:41:30;4.55;;;3.60;;
18568;SDS011;14780;48.316;-1.050;2023-06-10T02:44:16;4.25;;;3.40;;
18568;SDS011;14780;48.316;-1.050;2023-06-10T02:47:01;4.75;;;3.40;;
18568;SDS011;14780;48.316;-1.050;2023-06-10T02:49:46;5.35;;;3.50;;
18568;SDS011;14780;48.316;-1.050;2023-06-10T02:52:31;5.15;;;3.90;;
18568;SDS011;14780;48.316;-1.050;2023-06-10T02:55:16;5.03;;;3.30;;
18568;SDS011;14780;48.316;-1.050;2023-06-10T02:58:01;4.90;;;3.60;;
18568;SDS011;14780;48.316;-1.050;2023-06-10T03:00:46;5.07;;;3.33;;
18568;SDS011;14780;48.316;-1.050;2023-06-10T03:03:31;4.85;;;3.67;;
18568;SDS011;14780;48.316;-1.050;2023-06-10T03:06:17;5.38;;;3.63;;
18568;SDS011;14780;48.316;-1.050;2023-06-10T03:09:02;4.32;;;3.42;;
18568;SDS011;14780;48.316;-1.050;2023-06-10T03:11:48;4.18;;;3.30;;
18568;SDS011;14780;48.316;-1.050;2023-06-10T03:14:32;4.38;;;3.70;;
18568;SDS011;14780;48.316;-1.050;2023-06-10T03:17:18;4.88;;;3.53;;
18568;SDS011;14780;48.316;-1.050;2023-06-10T03:20:03;4.60;;;3.40;;
18568;SDS011;14780;48.316;-1.050;2023-06-10T03:22:49;4.50;;;3.50;;
18568;SDS011;14780;48.316;-1.050;2023-06-10T03:25:33;4.85;;;3.60;;
18568;SDS011;14780;48.316;-1.050;2023-06-10T03:28:18;4.00;;;3.10;;
18568;SDS011;14780;48.316;-1.050;2023-06-10T03:31:03;4.72;;;3.50;;
18568;SDS011;14780;48.316;-1.050;2023-06-10T03:33:48;4.35;;;3.40;;
18568;SDS011;14780;48.316;-1.050;2023-06-10T03:36:33;6.55;;;3.70;;
18568;SDS011;14780;48.316;-1.050;2023-06-10T03:39:21;4.20;;;3.47;;
18568;SDS011;14780;48.316;-1.050;2023-06-10T03:42:07;4.80;;;3.30;;
18568;SDS011;14780;48.316;-1.050;2023-06-10T03:44:51;4.20;;;3.20;;
18568;SDS011;14780;48.316;-1.050;2023-06-10T03:47:36;4.93;;;3.47;;
18568;SDS011;14780;48.316;-1.050;2023-06-10T03:50:21;4.30;;;3.30;;
18568;SDS011;14780;48.316;-1.050;2023-06-10T03:53:07;4.22;;;3.10;;
18568;SDS011;14780;48.316;-1.050;2023-06-10T03:55:52;5.13;;;4.13;;
18568;SDS011;14780;48.316;-1.050;2023-06-10T03:58:37;4.30;;;3.30;;
18568;SDS011;14780;48.316;-1.050;2023-06-10T04:01:21;5.40;;;3.10;;
18568;SDS011;14780;48.316;-1.050;2023-06-10T04:04:07;3.90;;;3.17;;
18568;SDS011;14780;48.316;-1.050;2023-06-10T04:06:51;4.50;;;3.47;;
18568;SDS011;14780;48.316;-1.050;2023-06-10T04:09:36;4.00;;;3.20;;
18568;SDS011;14780;48.316;-1.050;2023-06-10T04:12:21;4.25;;;3.20;;
18568;SDS011;14780;48.316;-1.050;2023-06-10T04:15:06;4.50;;;3.20;;
18568;SDS011;14780;48.316;-1.050;2023-06-10T04:17:51;4.38;;;3.33;;
18568;SDS011;14780;48.316;-1.050;2023-06-10T04:20:36;4.75;;;3.10;;
18568;SDS011;14780;48.316;-1.050;2023-06-10T04:23:21;4.80;;;3.30;;
18568;SDS011;14780;48.316;-1.050;2023-06-10T04:26:06;4.25;;;3.35;;
18568;SDS011;14780;48.316;-1.050;2023-06-10T04:28:51;4.18;;;3.00;;
18568;SDS011;14780;48.316;-1.050;2023-06-10T04:31:35;4.55;;;3.17;;
18568;SDS011;14780;48.316;-1.050;2023-06-10T04:34:20;4.25;;;2.97;;
18568;SDS011;14780;48.316;-1.050;2023-06-10T04:37:04;5.13;;;3.58;;
18568;SDS011;14780;48.316;-1.050;2023-06-10T04:39:50;5.00;;;3.40;;
18568;SDS011;14780;48.316;-1.050;2023-06-10T04:42:35;4.45;;;3.30;;
18568;SDS011;14780;48.316;-1.050;2023-06-10T04:45:20;5.15;;;3.65;;
18568;SDS011;14780;48.316;-1.050;2023-06-10T04:48:05;4.03;;;3.20;;
18568;SDS011;14780;48.316;-1.050;2023-06-10T04:50:51;3.95;;;3.33;;
18568;SDS011;14780;48.316;-1.050;2023-06-10T04:53:36;5.32;;;3.72;;
18568;SDS011;14780;48.316;-1.050;2023-06-10T04:56:21;3.83;;;3.22;;
18568;SDS011;14780;48.316;-1.050;2023-06-10T04:59:06;5.25;;;3.38;;
18568;SDS011;14780;48.316;-1.050;2023-06-10T05:01:50;4.32;;;3.40;;
18568;SDS011;14780;48.316;-1.050;2023-06-10T05:04:35;4.53;;;3.63;;
18568;SDS011;14780;48.316;-1.050;2023-06-10T05:07:20;4.00;;;2.90;;
18568;SDS011;14780;48.316;-1.050;2023-06-10T05:10:05;4.43;;;3.28;;
18568;SDS011;14780;48.316;-1.050;2023-06-10T05:12:50;4.45;;;3.20;;
18568;SDS011;14780;48.316;-1.050;2023-06-10T05:15:35;5.05;;;3.40;;
18568;SDS011;14780;48.316;-1.050;2023-06-10T05:18:20;4.72;;;3.30;;
18568;SDS011;14780;48.316;-1.050;2023-06-10T05:21:05;7.10;;;3.10;;
18568;SDS011;14780;48.316;-1.050;2023-06-10T05:23:51;4.38;;;3.35;;
18568;SDS011;14780;48.316;-1.050;2023-06-10T05:26:35;4.53;;;3.30;;
18568;SDS011;14780;48.316;-1.050;2023-06-10T05:29:21;5.07;;;3.50;;
18568;SDS011;14780;48.316;-1.050;2023-06-10T05:32:07;3.75;;;2.97;;
18568;SDS011;14780;48.316;-1.050;2023-06-10T05:34:52;4.75;;;2.90;;
18568;SDS011;14780;48.316;-1.050;2023-06-10T05:37:36;4.03;;;3.15;;
18568;SDS011;14780;48.316;-1.050;2023-06-10T05:40:21;4.30;;;2.85;;
18568;SDS011;14780;48.316;-1.050;2023-06-10T05:43:05;4.40;;;3.33;;
18568;SDS011;14780;48.316;-1.050;2023-06-10T05:45:51;5.10;;;3.35;;
18568;SDS011;14780;48.316;-1.050;2023-06-10T05:48:36;4.20;;;3.20;;
18568;SDS011;14780;48.316;-1.050;2023-06-10T05:51:21;5.00;;;3.30;;
18568;SDS011;14780;48.316;-1.050;2023-06-10T05:54:05;4.03;;;3.10;;
18568;SDS011;14780;48.316;-1.050;2023-06-10T05:56:50;5.50;;;3.45;;
18568;SDS011;14780;48.316;-1.050;2023-06-10T05:59:34;3.88;;;2.90;;
18568;SDS011;14780;48.316;-1.050;2023-06-10T06:02:20;4.32;;;3.17;;
18568;SDS011;14780;48.316;-1.050;2023-06-10T06:05:04;4.07;;;3.17;;
18568;SDS011;14780;48.316;-1.050;2023-06-10T06:07:49;5.60;;;3.25;;
18568;SDS011;14780;48.316;-1.050;2023-06-10T06:10:34;4.10;;;3.13;;
18568;SDS011;14780;48.316;-1.050;2023-06-10T06:13:19;5.15;;;3.40;;
18568;SDS011;14780;48.316;-1.050;2023-06-10T06:16:04;4.45;;;3.33;;
18568;SDS011;14780;48.316;-1.050;2023-06-10T06:18:49;4.78;;;3.20;;
18568;SDS011;14780;48.316;-1.050;2023-06-10T06:21:33;5.47;;;3.17;;
18568;SDS011;14780;48.316;-1.050;2023-06-10T06:24:18;4.50;;;3.20;;
18568;SDS011;14780;48.316;-1.050;2023-06-10T06:27:04;4.15;;;3.00;;
18568;SDS011;14780;48.316;-1.050;2023-06-10T06:29:49;4.40;;;2.95;;
18568;SDS011;14780;48.316;-1.050;2023-06-10T06:32:34;5.00;;;3.65;;
18568;SDS011;14780;48.316;-1.050;2023-06-10T06:35:19;4.43;;;2.97;;
18568;SDS011;14780;48.316;-1.050;2023-06-10T06:38:04;4.40;;;3.50;;
18568;SDS011;14780;48.316;-1.050;2023-06-10T06:40:49;7.57;;;4.10;;
18568;SDS011;14780;48.316;-1.050;2023-06-10T06:43:33;5.35;;;3.88;;
18568;SDS011;14780;48.316;-1.050;2023-06-10T06:46:18;5.30;;;3.77;;
18568;SDS011;14780;48.316;-1.050;2023-06-10T06:49:03;5.07;;;3.60;;
18568;SDS011;14780;48.316;-1.050;2023-06-10T06:51:48;6.60;;;4.47;;
18568;SDS011;14780;48.316;-1.050;2023-06-10T06:54:33;6.25;;;4.50;;
18568;SDS011;14780;48.316;-1.050;2023-06-10T06:57:17;5.55;;;4.53;;
18568;SDS011;14780;48.316;-1.050;2023-06-10T07:00:02;6.85;;;4.93;;
18568;SDS011;14780;48.316;-1.050;2023-06-10T07:02:48;5.93;;;4.63;;
18568;SDS011;14780;48.316;-1.050;2023-06-10T07:05:33;6.73;;;4.90;;
18568;SDS011;14780;48.316;-1.050;2023-06-10T07:08:17;8.65;;;5.10;;
18568;SDS011;14780;48.316;-1.050;2023-06-10T07:11:02;6.38;;;4.80;;
18568;SDS011;14780;48.316;-1.050;2023-06-10T07:13:46;8.57;;;5.20;;
18568;SDS011;14780;48.316;-1.050;2023-06-10T07:16:32;6.55;;;4.95;;
18568;SDS011;14780;48.316;-1.050;2023-06-10T07:19:16;11.30;;;6.40;;
18568;SDS011;14780;48.316;-1.050;2023-06-10T07:22:01;8.20;;;5.70;;
18568;SDS011;14780;48.316;-1.050;2023-06-10T07:24:46;8.70;;;6.23;;
18568;SDS011;14780;48.316;-1.050;2023-06-10T07:27:30;7.72;;;5.50;;
18568;SDS011;14780;48.316;-1.050;2023-06-10T07:30:15;7.00;;;5.07;;
18568;SDS011;14780;48.316;-1.050;2023-06-10T07:33:00;10.20;;;5.87;;
18568;SDS011;14780;48.316;-1.050;2023-06-10T07:35:45;7.75;;;5.30;;
18568;SDS011;14780;48.316;-1.050;2023-06-10T07:38:31;8.73;;;6.33;;
18568;SDS011;14780;48.316;-1.050;2023-06-10T07:41:16;8.15;;;5.88;;
18568;SDS011;14780;48.316;-1.050;2023-06-10T07:44:01;8.45;;;5.20;;
18568;SDS011;14780;48.316;-1.050;2023-06-10T07:46:46;7.70;;;5.43;;
18568;SDS011;14780;48.316;-1.050;2023-06-10T07:49:31;8.07;;;5.22;;
18568;SDS011;14780;48.316;-1.050;2023-06-10T07:52:15;6.00;;;4.97;;
18568;SDS011;14780;48.316;-1.050;2023-06-10T07:55:00;6.40;;;5.00;;
18568;SDS011;14780;48.316;-1.050;2023-06-10T07:57:44;6.47;;;4.55;;
18568;SDS011;14780;48.316;-1.050;2023-06-10T08:00:29;5.55;;;4.10;;
18568;SDS011;14780;48.316;-1.050;2023-06-10T08:03:13;5.80;;;4.40;;
18568;SDS011;14780;48.316;-1.050;2023-06-10T08:05:58;7.20;;;4.70;;
18568;SDS011;14780;48.316;-1.050;2023-06-10T08:08:43;6.40;;;4.60;;
18568;SDS011;14780;48.316;-1.050;2023-06-10T08:11:29;5.75;;;4.35;;
18568;SDS011;14780;48.316;-1.050;2023-06-10T08:14:15;5.03;;;4.20;;
18568;SDS011;14780;48.316;-1.050;2023-06-10T08:17:00;6.28;;;4.50;;
18568;SDS011;14780;48.316;-1.050;2023-06-10T08:19:45;5.37;;;4.40;;
18568;SDS011;14780;48.316;-1.050;2023-06-10T08:22:29;5.55;;;4.40;;
18568;SDS011;14780;48.316;-1.050;2023-06-10T08:25:14;5.25;;;4.35;;
18568;SDS011;14780;48.316;-1.050;2023-06-10T08:27:58;4.72;;;3.80;;
18568;SDS011;14780;48.316;-1.050;2023-06-10T08:30:43;6.32;;;4.60;;
18568;SDS011;14780;48.316;-1.050;2023-06-10T08:33:28;6.00;;;4.22;;
18568;SDS011;14780;48.316;-1.050;2023-06-10T08:36:13;9.95;;;5.10;;
18568;SDS011;14780;48.316;-1.050;2023-06-10T08:38:58;8.27;;;4.93;;
18568;SDS011;14780;48.316;-1.050;2023-06-10T08:41:43;10.77;;;4.60;;
18568;SDS011;14780;48.316;-1.050;2023-06-10T08:44:40;8.88;;;5.15;;
18568;SDS011;14780;48.316;-1.050;2023-06-10T08:47:26;8.35;;;4.90;;
18568;SDS011;14780;48.316;-1.050;2023-06-10T08:50:19;11.70;;;5.22;;
18568;SDS011;14780;48.316;-1.050;2023-06-10T08:53:04;14.30;;;5.50;;
18568;SDS011;14780;48.316;-1.050;2023-06-10T08:55:50;7.47;;;4.80;;
18568;SDS011;14780;48.316;-1.050;2023-06-10T08:58:36;11.02;;;5.47;;
18568;SDS011;14780;48.316;-1.050;2023-06-10T09:01:25;12.45;;;5.53;;
18568;SDS011;14780;48.316;-1.050;2023-06-10T09:04:11;14.32;;;5.18;;
18568;SDS011;14780;48.316;-1.050;2023-06-10T09:06:56;11.30;;;5.20;;
18568;SDS011;14780;48.316;-1.050;2023-06-10T09:09:43;16.03;;;5.20;;
18568;SDS011;14780;48.316;-1.050;2023-06-10T09:12:28;15.75;;;5.38;;
18568;SDS011;14780;48.316;-1.050;2023-06-10T09:15:13;11.70;;;5.30;;
18568;SDS011;14780;48.316;-1.050;2023-06-10T09:18:00;11.20;;;4.72;;
18568;SDS011;14780;48.316;-1.050;2023-06-10T09:20:46;13.68;;;5.57;;
18568;SDS011;14780;48.316;-1.050;2023-06-10T09:23:31;12.00;;;5.55;;
18568;SDS011;14780;48.316;-1.050;2023-06-10T09:26:16;10.15;;;5.50;;
18568;SDS011;14780;48.316;-1.050;2023-06-10T09:29:05;13.38;;;6.18;;
18568;SDS011;14780;48.316;-1.050;2023-06-10T09:31:52;12.90;;;5.80;;
18568;SDS011;14780;48.316;-1.050;2023-06-10T09:34:36;12.20;;;5.70;;
18568;SDS011;14780;48.316;-1.050;2023-06-10T09:37:22;10.65;;;4.95;;
18568;SDS011;14780;48.316;-1.050;2023-06-10T09:40:07;11.70;;;5.70;;
18568;SDS011;14780;48.316;-1.050;2023-06-10T09:42:54;18.15;;;6.55;;
18568;SDS011;14780;48.316;-1.050;2023-06-10T09:45:41;16.80;;;6.40;;
18568;SDS011;14780;48.316;-1.050;2023-06-10T09:48:27;12.43;;;5.73;;
18568;SDS011;14780;48.316;-1.050;2023-06-10T09:51:12;9.00;;;5.40;;
18568;SDS011;14780;48.316;-1.050;2023-06-10T09:53:57;9.85;;;5.30;;
18568;SDS011;14780;48.316;-1.050;2023-06-10T09:56:49;11.20;;;5.95;;
18568;SDS011;14780;48.316;-1.050;2023-06-10T09:59:36;11.07;;;5.20;;
18568;SDS011;14780;48.316;-1.050;2023-06-10T10:02:21;10.95;;;5.70;;
18568;SDS011;14780;48.316;-1.050;2023-06-10T10:05:06;7.70;;;5.00;;
18568;SDS011;14780;48.316;-1.050;2023-06-10T10:07:51;17.88;;;5.88;;
18568;SDS011;14780;48.316;-1.050;2023-06-10T10:10:36;10.10;;;5.53;;
18568;SDS011;14780;48.316;-1.050;2023-06-10T10:13:21;8.38;;;5.30;;
18568;SDS011;14780;48.316;-1.050;2023-06-10T10:16:11;8.80;;;5.80;;
18568;SDS011;14780;48.316;-1.050;2023-06-10T10:18:59;7.65;;;5.25;;
18568;SDS011;14780;48.316;-1.050;2023-06-10T10:21:54;8.77;;;5.45;;
18568;SDS011;14780;48.316;-1.050;2023-06-10T10:24:51;10.50;;;4.85;;
18568;SDS011;14780;48.316;-1.050;2023-06-10T10:30:38;11.52;;;5.97;;
18568;SDS011;14780;48.316;-1.050;2023-06-10T10:33:33;7.47;;;5.28;;
18568;SDS011;14780;48.316;-1.050;2023-06-10T10:36:39;8.60;;;5.40;;
18568;SDS011;14780;48.316;-1.050;2023-06-10T10:39:25;7.70;;;5.60;;
18568;SDS011;14780;48.316;-1.050;2023-06-10T10:42:11;6.75;;;5.20;;
18568;SDS011;14780;48.316;-1.050;2023-06-10T10:44:57;7.70;;;5.22;;
18568;SDS011;14780;48.316;-1.050;2023-06-10T10:47:46;9.10;;;5.70;;
18568;SDS011;14780;48.316;-1.050;2023-06-10T10:50:37;6.63;;;5.30;;
18568;SDS011;14780;48.316;-1.050;2023-06-10T10:53:22;8.35;;;6.22;;
18568;SDS011;14780;48.316;-1.050;2023-06-10T10:56:12;8.52;;;5.47;;
18568;SDS011;14780;48.316;-1.050;2023-06-10T10:59:05;6.75;;;4.70;;
18568;SDS011;14780;48.316;-1.050;2023-06-10T11:01:51;11.77;;;5.33;;
18568;SDS011;14780;48.316;-1.050;2023-06-10T11:04:36;7.57;;;5.20;;
18568;SDS011;14780;48.316;-1.050;2023-06-10T11:07:25;7.55;;;5.80;;
18568;SDS011;14780;48.316;-1.050;2023-06-10T11:10:11;7.30;;;5.50;;
18568;SDS011;14780;48.316;-1.050;2023-06-10T11:12:57;9.45;;;5.55;;
18568;SDS011;14780;48.316;-1.050;2023-06-10T11:15:45;8.23;;;5.60;;
18568;SDS011;14780;48.316;-1.050;2023-06-10T11:18:35;7.80;;;5.40;;
18568;SDS011;14780;48.316;-1.050;2023-06-10T11:24:12;7.63;;;5.43;;
18568;SDS011;14780;48.316;-1.050;2023-06-10T11:27:16;8.55;;;5.07;;
18568;SDS011;14780;48.316;-1.050;2023-06-10T11:32:50;6.70;;;5.05;;
18568;SDS011;14780;48.316;-1.050;2023-06-10T11:35:36;6.90;;;5.30;;
18568;SDS011;14780;48.316;-1.050;2023-06-10T11:38:21;6.47;;;5.13;;
18568;SDS011;14780;48.316;-1.050;2023-06-10T11:41:06;6.63;;;5.45;;
18568;SDS011;14780;48.316;-1.050;2023-06-10T11:43:52;6.78;;;5.60;;
18568;SDS011;14780;48.316;-1.050;2023-06-10T11:46:40;6.07;;;5.00;;
18568;SDS011;14780;48.316;-1.050;2023-06-10T11:49:26;6.83;;;5.43;;
18568;SDS011;14780;48.316;-1.050;2023-06-10T11:52:11;6.70;;;5.03;;
18568;SDS011;14780;48.316;-1.050;2023-06-10T11:54:56;6.10;;;4.90;;
18568;SDS011;14780;48.316;-1.050;2023-06-10T11:57:40;7.03;;;5.43;;
18568;SDS011;14780;48.316;-1.050;2023-06-10T12:00:25;7.28;;;5.75;;
18568;SDS011;14780;48.316;-1.050;2023-06-10T12:03:10;7.57;;;5.60;;
18568;SDS011;14780;48.316;-1.050;2023-06-10T12:08:43;6.55;;;5.07;;
18568;SDS011;14780;48.316;-1.050;2023-06-10T12:11:28;7.03;;;5.10;;
18568;SDS011;14780;48.316;-1.050;2023-06-10T12:14:13;7.90;;;5.40;;
18568;SDS011;14780;48.316;-1.050;2023-06-10T12:16:58;6.63;;;5.57;;
18568;SDS011;14780;48.316;-1.050;2023-06-10T12:19:43;7.00;;;5.60;;
18568;SDS011;14780;48.316;-1.050;2023-06-10T12:22:35;8.70;;;5.10;;
18568;SDS011;14780;48.316;-1.050;2023-06-10T12:25:24;5.72;;;4.97;;
18568;SDS011;14780;48.316;-1.050;2023-06-10T12:28:10;7.13;;;5.57;;
18568;SDS011;14780;48.316;-1.050;2023-06-10T12:31:18;5.77;;;5.17;;
18568;SDS011;14780;48.316;-1.050;2023-06-10T12:34:08;6.00;;;5.20;;
18568;SDS011;14780;48.316;-1.050;2023-06-10T12:39:38;6.75;;;5.05;;
18568;SDS011;14780;48.316;-1.050;2023-06-10T12:42:23;6.20;;;4.80;;
18568;SDS011;14780;48.316;-1.050;2023-06-10T12:45:09;5.90;;;4.93;;
18568;SDS011;14780;48.316;-1.050;2023-06-10T12:48:08;5.60;;;4.97;;
18568;SDS011;14780;48.316;-1.050;2023-06-10T12:50:55;6.00;;;5.15;;
18568;SDS011;14780;48.316;-1.050;2023-06-10T12:53:41;5.45;;;4.95;;
18568;SDS011;14780;48.316;-1.050;2023-06-10T12:56:27;5.75;;;4.90;;
18568;SDS011;14780;48.316;-1.050;2023-06-10T12:59:11;5.53;;;4.87;;
18568;SDS011;14780;48.316;-1.050;2023-06-10T13:01:56;8.00;;;5.50;;
18568;SDS011;14780;48.316;-1.050;2023-06-10T13:04:41;5.85;;;4.90;;
18568;SDS011;14780;48.316;-1.050;2023-06-10T13:07:28;5.77;;;4.90;;
18568;SDS011;14780;48.316;-1.050;2023-06-10T13:10:14;5.85;;;5.07;;
18568;SDS011;14780;48.316;-1.050;2023-06-10T13:13:00;5.90;;;5.20;;
18568;SDS011;14780;48.316;-1.050;2023-06-10T13:15:46;5.85;;;5.25;;
18568;SDS011;14780;48.316;-1.050;2023-06-10T13:18:32;6.65;;;5.15;;
18568;SDS011;14780;48.316;-1.050;2023-06-10T13:21:21;5.38;;;4.45;;
18568;SDS011;14780;48.316;-1.050;2023-06-10T13:24:06;6.15;;;4.93;;
18568;SDS011;14780;48.316;-1.050;2023-06-10T13:26:51;5.93;;;4.65;;
18568;SDS011;14780;48.316;-1.050;2023-06-10T13:29:35;6.40;;;5.07;;
18568;SDS011;14780;48.316;-1.050;2023-06-10T13:32:20;6.30;;;5.30;;
18568;SDS011;14780;48.316;-1.050;2023-06-10T13:35:05;6.60;;;5.00;;
18568;SDS011;14780;48.316;-1.050;2023-06-10T13:37:51;6.55;;;5.30;;
18568;SDS011;14780;48.316;-1.050;2023-06-10T13:40:36;6.07;;;4.78;;
18568;SDS011;14780;48.316;-1.050;2023-06-10T13:43:21;6.95;;;5.05;;
18568;SDS011;14780;48.316;-1.050;2023-06-10T13:46:05;5.80;;;5.07;;
18568;SDS011;14780;48.316;-1.050;2023-06-10T13:48:50;5.53;;;4.65;;
18568;SDS011;14780;48.316;-1.050;2023-06-10T13:51:34;5.77;;;4.93;;
18568;SDS011;14780;48.316;-1.050;2023-06-10T13:54:19;5.15;;;4.40;;
18568;SDS011;14780;48.316;-1.050;2023-06-10T13:57:05;5.85;;;4.85;;
18568;SDS011;14780;48.316;-1.050;2023-06-10T13:59:50;6.00;;;5.00;;
18568;SDS011;14780;48.316;-1.050;2023-06-10T14:02:35;7.15;;;5.10;;
18568;SDS011;14780;48.316;-1.050;2023-06-10T14:05:21;5.90;;;4.70;;
18568;SDS011;14780;48.316;-1.050;2023-06-10T14:08:05;6.07;;;5.25;;
18568;SDS011;14780;48.316;-1.050;2023-06-10T14:10:50;5.60;;;4.80;;
18568;SDS011;14780;48.316;-1.050;2023-06-10T14:13:35;5.65;;;4.68;;
18568;SDS011;14780;48.316;-1.050;2023-06-10T14:16:22;5.00;;;4.50;;
18568;SDS011;14780;48.316;-1.050;2023-06-10T14:19:07;5.60;;;4.93;;
18568;SDS011;14780;48.316;-1.050;2023-06-10T14:21:51;6.25;;;5.15;;
18568;SDS011;14780;48.316;-1.050;2023-06-10T14:24:39;5.95;;;5.35;;
18568;SDS011;14780;48.316;-1.050;2023-06-10T14:27:23;5.85;;;5.15;;
18568;SDS011;14780;48.316;-1.050;2023-06-10T14:30:09;5.55;;;4.50;;
18568;SDS011;14780;48.316;-1.050;2023-06-10T14:32:54;5.45;;;4.30;;
18568;SDS011;14780;48.316;-1.050;2023-06-10T14:35:39;5.43;;;4.47;;
18568;SDS011;14780;48.316;-1.050;2023-06-10T14:38:23;5.65;;;4.72;;
18568;SDS011;14780;48.316;-1.050;2023-06-10T14:41:08;5.00;;;4.50;;
18568;SDS011;14780;48.316;-1.050;2023-06-10T14:43:53;5.95;;;4.40;;
18568;SDS011;14780;48.316;-1.050;2023-06-10T14:46:38;4.80;;;4.30;;
18568;SDS011;14780;48.316;-1.050;2023-06-10T14:49:23;5.40;;;4.60;;
18568;SDS011;14780;48.316;-1.050;2023-06-10T14:52:08;4.97;;;4.32;;
18568;SDS011;14780;48.316;-1.050;2023-06-10T14:57:37;5.20;;;4.70;;
18568;SDS011;14780;48.316;-1.050;2023-06-10T15:00:22;6.55;;;4.65;;
18568;SDS011;14780;48.316;-1.050;2023-06-10T15:03:07;4.43;;;3.93;;
18568;SDS011;14780;48.316;-1.050;2023-06-10T15:05:52;6.27;;;4.10;;
18568;SDS011;14780;48.316;-1.050;2023-06-10T15:08:36;4.47;;;4.05;;
18568;SDS011;14780;48.316;-1.050;2023-06-10T15:11:21;5.10;;;4.20;;
18568;SDS011;14780;48.316;-1.050;2023-06-10T15:14:05;5.32;;;4.45;;
18568;SDS011;14780;48.316;-1.050;2023-06-10T15:16:50;5.45;;;4.30;;
18568;SDS011;14780;48.316;-1.050;2023-06-10T15:19:35;4.65;;;4.05;;
18568;SDS011;14780;48.316;-1.050;2023-06-10T15:22:19;5.53;;;4.20;;
18568;SDS011;14780;48.316;-1.050;2023-06-10T15:25:05;6.37;;;4.03;;
18568;SDS011;14780;48.316;-1.050;2023-06-10T15:27:50;5.45;;;4.60;;
18568;SDS011;14780;48.316;-1.050;2023-06-10T15:30:35;4.90;;;4.40;;
18568;SDS011;14780;48.316;-1.050;2023-06-10T15:33:20;5.13;;;3.80;;
18568;SDS011;14780;48.316;-1.050;2023-06-10T15:36:05;4.93;;;4.27;;
18568;SDS011;14780;48.316;-1.050;2023-06-10T15:38:50;4.75;;;4.20;;
18568;SDS011;14780;48.316;-1.050;2023-06-10T15:41:35;4.97;;;4.13;;
18568;SDS011;14780;48.316;-1.050;2023-06-10T15:44:19;4.68;;;4.15;;
18568;SDS011;14780;48.316;-1.050;2023-06-10T15:47:04;4.45;;;4.00;;
18568;SDS011;14780;48.316;-1.050;2023-06-10T15:49:49;5.07;;;3.90;;
18568;SDS011;14780;48.316;-1.050;2023-06-10T15:52:34;4.53;;;3.85;;
18568;SDS011;14780;48.316;-1.050;2023-06-10T15:55:19;4.17;;;3.43;;
18568;SDS011;14780;48.316;-1.050;2023-06-10T15:58:04;4.85;;;3.90;;
18568;SDS011;14780;48.316;-1.050;2023-06-10T16:00:49;5.63;;;4.30;;
18568;SDS011;14780;48.316;-1.050;2023-06-10T16:03:34;4.80;;;4.03;;
18568;SDS011;14780;48.316;-1.050;2023-06-10T16:06:19;5.45;;;4.22;;
18568;SDS011;14780;48.316;-1.050;2023-06-10T16:09:04;5.82;;;4.47;;
18568;SDS011;14780;48.316;-1.050;2023-06-10T16:11:49;6.05;;;4.53;;
18568;SDS011;14780;48.316;-1.050;2023-06-10T16:14:33;6.50;;;4.25;;
18568;SDS011;14780;48.316;-1.050;2023-06-10T16:17:18;5.40;;;4.50;;
18568;SDS011;14780;48.316;-1.050;2023-06-10T16:20:03;4.60;;;4.10;;
18568;SDS011;14780;48.316;-1.050;2023-06-10T16:22:49;11.90;;;3.95;;
18568;SDS011;14780;48.316;-1.050;2023-06-10T16:25:34;5.10;;;3.97;;
18568;SDS011;14780;48.316;-1.050;2023-06-10T16:28:18;6.33;;;4.30;;
18568;SDS011;14780;48.316;-1.050;2023-06-10T16:31:03;5.28;;;3.97;;
18568;SDS011;14780;48.316;-1.050;2023-06-10T16:33:48;4.80;;;3.53;;
18568;SDS011;14780;48.316;-1.050;2023-06-10T16:36:33;6.80;;;3.97;;
18568;SDS011;14780;48.316;-1.050;2023-06-10T16:39:18;6.88;;;4.45;;
18568;SDS011;14780;48.316;-1.050;2023-06-10T16:42:03;4.80;;;3.70;;